Center Junction, Iowa
Current Conditions -  °F | °C
As of 2:35 PM on Monday 24 Nov 2014 (Local Time) from KMXO Reporting Station
Unknown Precip Unknown Precip  
Wind Chill:   Ceiling: 1300
Heat Index: 23°   Visibility: 2.5mi
Dew Point: 21°   Wind: 18mph
Humidity: 93%   Direction: 280°W
Pressure: 29.56"   Gusts: 26mph
Location:  42.12°N, 91.09°W
Report Text: KMXO 242035Z AUTO 28016G23KT 2 1/2SM -UP BKN013 OVC018 M05/M06 A2956 RMK AO2
Loading
Personal Weather Stations






























Interactive Weather Map New forecast layout! Learn more

10-Day Weather Forecast

Advertisements
Track Severe Weather on mobile